Time;durP1;ratioP1;P1;durP2;ratioP2;P2;SDS_P1;SDS_P2;PMS_P1;PMS_P2;Temp;Humidity;BMP_temperature;BMP_pressure;BME280_temperature;BME280_humidity;BME280_pressure;Samples;Min_cycle;Max_cycle;Signal;HPM_P1;HPM_P2
2022/01/17 00:00:49;;;;;;;10.90;9.80;;;15.60;55.20;16.80;102168.00;;;;5053428;28;20173;-48
2022/01/17 00:03:14;;;;;;;10.47;9.23;;;15.60;55.20;16.80;102161.00;;;;5050765;28;20691;-49
2022/01/17 00:05:40;;;;;;;10.87;9.70;;;15.60;55.30;16.80;102166.00;;;;5049607;28;20171;-48
2022/01/17 00:08:06;;;;;;;10.93;9.50;;;15.60;55.20;16.80;102168.00;;;;5050565;28;20174;-48
2022/01/17 00:10:31;;;;;;;10.17;9.10;;;15.60;55.50;16.80;102164.00;;;;5048294;28;20974;-48
2022/01/17 00:12:59;;;;;;;10.97;9.27;;;15.60;55.30;16.70;102171.00;;;;5049376;28;20163;-50
2022/01/17 00:15:33;;;;;;;10.57;9.47;;;15.50;55.30;16.70;102172.00;;;;5049209;28;20170;-49
2022/01/17 00:20:41;;;;;;;10.90;9.40;;;15.40;55.60;16.70;102190.00;;;;5049346;28;20208;-49
2022/01/17 00:23:06;;;;;;;10.63;9.53;;;15.30;55.60;16.60;102173.00;;;;5049150;28;20760;-47
2022/01/17 00:25:32;;;;;;;10.77;9.63;;;15.30;55.80;16.60;102202.00;;;;5048487;28;20185;-50
2022/01/17 00:27:58;;;;;;;10.83;9.73;;;15.30;55.80;16.60;102196.00;;;;5047500;28;20250;-49
2022/01/17 00:30:23;;;;;;;11.00;9.60;;;15.30;55.70;16.60;102213.00;;;;5063923;28;20198;-49
2022/01/17 00:32:49;;;;;;;10.20;9.17;;;15.30;55.70;16.60;102211.00;;;;5066257;28;20162;-49
2022/01/17 00:35:15;;;;;;;10.67;9.33;;;15.30;55.80;16.50;102210.00;;;;5054357;28;20181;-48
2022/01/17 00:37:41;;;;;;;10.47;9.47;;;15.30;55.80;16.50;102196.00;;;;5064793;28;20191;-49
2022/01/17 00:40:09;;;;;;;9.77;8.80;;;15.20;55.70;16.50;102211.00;;;;5073026;28;20175;-49
2022/01/17 00:42:34;;;;;;;9.73;8.73;;;15.20;56.00;16.50;102225.00;;;;5052949;28;20529;-47
2022/01/17 00:45:02;;;;;;;10.20;9.07;;;15.20;55.90;16.50;102240.00;;;;5048167;28;20167;-48
2022/01/17 00:47:28;;;;;;;9.53;8.63;;;15.20;55.80;16.50;102242.00;;;;5048199;28;20198;-48
2022/01/17 00:49:54;;;;;;;11.33;8.53;;;15.20;55.70;16.40;102244.00;;;;5048086;28;20787;-49
2022/01/17 00:52:19;;;;;;;10.00;9.00;;;15.20;55.70;16.40;102244.00;;;;5048256;28;20178;-49
2022/01/17 00:54:45;;;;;;;10.10;9.03;;;15.10;55.70;16.40;102230.00;;;;5047737;28;20527;-48
2022/01/17 00:57:11;;;;;;;8.63;7.83;;;15.10;55.90;16.40;102224.00;;;;5048090;28;20209;-48
2022/01/17 00:59:37;;;;;;;9.93;8.93;;;15.10;55.90;16.40;102144.00;;;;5048139;28;20174;-49
2022/01/17 01:02:02;;;;;;;9.27;8.20;;;15.10;55.80;16.40;102218.00;;;;5054150;28;20181;-49
2022/01/17 01:04:28;;;;;;;9.23;8.37;;;15.10;55.80;16.40;102205.00;;;;5062169;28;20186;-47
2022/01/17 01:06:54;;;;;;;9.20;8.30;;;15.10;55.80;16.30;102204.00;;;;5049666;28;20198;-49
2022/01/17 01:09:19;;;;;;;9.33;8.43;;;15.10;55.80;16.40;102201.00;;;;5050690;28;20190;-48
2022/01/17 01:11:45;;;;;;;9.20;8.30;;;15.00;55.70;16.30;102204.00;;;;5049079;28;20181;-50
2022/01/17 01:14:11;;;;;;;9.30;8.30;;;15.00;55.70;16.30;102222.00;;;;5050613;28;20864;-49
2022/01/17 01:16:37;;;;;;;8.43;7.63;;;15.00;55.80;16.30;102213.00;;;;5047500;28;20189;-47
2022/01/17 01:21:46;;;;;;;9.83;8.83;;;14.90;55.90;16.20;102235.00;;;;5047490;28;20159;-47
2022/01/17 01:29:50;;;;;;;9.10;8.20;;;14.90;55.90;16.20;102251.00;;;;5047529;28;20282;-49
2022/01/17 01:32:20;;;;;;;8.80;8.00;;;14.90;55.90;16.20;102241.00;;;;5047685;28;20235;-49
2022/01/17 01:34:50;;;;;;;9.57;8.67;;;14.80;56.00;16.10;102234.00;;;;5047223;28;20166;-49
2022/01/17 01:37:16;;;;;;;9.17;8.13;;;14.80;55.90;16.10;102231.00;;;;5047413;28;20186;-48
2022/01/17 01:39:42;;;;;;;8.60;7.80;;;14.80;56.40;16.10;102227.00;;;;5047587;28;20177;-48
2022/01/17 01:42:17;;;;;;;9.13;8.23;;;14.80;56.30;16.10;102231.00;;;;5051589;28;20747;-48
2022/01/17 01:44:42;;;;;;;8.70;7.83;;;14.80;56.00;16.10;102220.00;;;;5051177;28;20676;-50
2022/01/17 01:47:08;;;;;;;9.17;8.27;;;14.80;56.10;16.10;102221.00;;;;5051532;28;20197;-49
2022/01/17 01:49:34;;;;;;;8.90;8.10;;;14.80;56.00;16.10;102226.00;;;;5051543;28;20613;-49
2022/01/17 01:52:00;;;;;;;8.83;8.00;;;14.80;56.10;16.10;102213.00;;;;5050438;28;20170;-48
2022/01/17 01:54:25;;;;;;;9.17;8.27;;;14.70;56.00;16.00;102234.00;;;;5051570;28;20253;-48
2022/01/17 01:56:51;;;;;;;10.17;8.27;;;14.80;56.00;16.00;102235.00;;;;5050930;28;20252;-50
2022/01/17 01:59:20;;;;;;;8.80;7.90;;;14.70;56.00;16.00;102249.00;;;;5051213;28;20189;-47
2022/01/17 02:01:46;;;;;;;9.53;8.57;;;14.70;56.00;16.00;102248.00;;;;5051759;28;20201;-48
2022/01/17 02:04:13;;;;;;;8.87;8.07;;;14.70;56.10;16.00;102255.00;;;;5051364;28;20170;-49
2022/01/17 02:06:39;;;;;;;8.77;7.87;;;14.70;56.20;16.00;102276.00;;;;5051278;28;20202;-49
2022/01/17 02:09:05;;;;;;;9.13;8.07;;;14.70;56.10;16.00;102276.00;;;;5051334;28;20167;-45
2022/01/17 02:11:32;;;;;;;9.40;8.43;;;14.70;56.20;16.00;102265.00;;;;5051269;28;20155;-48
2022/01/17 02:13:58;;;;;;;8.87;7.97;;;14.60;56.10;16.00;102251.00;;;;5051384;28;20262;-48
2022/01/17 02:16:24;;;;;;;9.50;8.47;;;14.60;56.10;16.00;102256.00;;;;5052002;28;20186;-48
2022/01/17 02:18:50;;;;;;;9.10;8.20;;;14.60;56.20;15.90;102234.00;;;;5054452;28;20269;-47
2022/01/17 02:23:50;;;;;;;9.57;8.57;;;14.50;56.10;15.90;102229.00;;;;5052002;28;20253;-49
2022/01/17 02:26:16;;;;;;;9.40;8.40;;;14.50;56.30;15.90;102236.00;;;;5049580;28;20273;-48
2022/01/17 02:28:49;;;;;;;10.80;9.00;;;14.50;56.20;15.90;102236.00;;;;5051166;28;20202;-49
2022/01/17 02:31:15;;;;;;;9.50;8.50;;;14.60;56.50;15.90;102233.00;;;;5049949;28;20202;-49
2022/01/17 02:33:41;;;;;;;9.40;8.50;;;14.60;56.20;15.90;102241.00;;;;5050070;28;20212;-48
2022/01/17 02:36:06;;;;;;;9.90;8.90;;;14.50;56.60;15.80;102227.00;;;;5050804;28;20561;-49
2022/01/17 02:38:32;;;;;;;11.57;9.20;;;14.50;56.80;15.80;102244.00;;;;5050913;28;20746;-49
2022/01/17 02:40:58;;;;;;;10.10;9.10;;;14.40;56.70;15.80;102222.00;;;;5049149;28;20874;-49
2022/01/17 02:43:25;;;;;;;9.63;8.63;;;14.40;57.70;15.80;102228.00;;;;5051086;28;20171;-49
2022/01/17 02:48:17;;;;;;;9.70;8.70;;;14.30;56.80;15.70;102216.00;;;;5050938;28;20166;-49
2022/01/17 02:50:43;;;;;;;9.73;8.70;;;14.40;56.90;15.70;102228.00;;;;5048761;28;20202;-50
2022/01/17 02:53:09;;;;;;;9.23;8.23;;;14.40;56.60;15.70;102235.00;;;;5050618;28;20162;-50
2022/01/17 02:55:35;;;;;;;10.03;8.80;;;14.40;56.40;15.70;102244.00;;;;5065633;28;20150;-51
2022/01/17 02:58:01;;;;;;;9.57;8.67;;;14.40;56.50;15.70;102243.00;;;;5068257;28;20648;-50
2022/01/17 03:00:26;;;;;;;10.13;9.13;;;14.40;56.40;15.70;102236.00;;;;5053726;28;20170;-49
2022/01/17 03:02:52;;;;;;;10.10;9.10;;;14.40;56.40;15.70;102240.00;;;;5052117;28;20830;-48
2022/01/17 03:05:19;;;;;;;10.63;9.20;;;14.40;56.40;15.70;102217.00;;;;5052477;28;20173;-49
2022/01/17 03:07:45;;;;;;;10.20;9.10;;;14.40;56.50;15.70;102205.00;;;;5052078;28;20198;-49
2022/01/17 03:10:22;;;;;;;10.37;9.17;;;14.40;56.40;15.70;102205.00;;;;5050330;28;20205;-50
2022/01/17 03:12:48;;;;;;;10.17;9.17;;;14.30;56.60;15.70;102207.00;;;;5050167;28;20204;-49
2022/01/17 03:15:14;;;;;;;9.60;8.60;;;14.30;56.60;15.60;102219.00;;;;5049479;28;20166;-49
2022/01/17 03:17:40;;;;;;;10.40;9.40;;;14.30;57.00;15.60;102214.00;;;;5049968;28;20208;-49
2022/01/17 03:20:07;;;;;;;10.27;9.17;;;14.30;57.00;15.60;102207.00;;;;5050075;28;20231;-49
2022/01/17 03:22:33;;;;;;;9.67;8.67;;;14.30;57.00;15.60;102211.00;;;;5049926;28;20669;-49
2022/01/17 03:24:59;;;;;;;10.87;9.30;;;14.20;56.90;15.60;102214.00;;;;5053334;28;20296;-50
2022/01/17 03:27:24;;;;;;;10.20;9.10;;;14.20;57.10;15.60;102228.00;;;;5075615;28;20194;-49
2022/01/17 03:29:50;;;;;;;10.27;9.13;;;14.20;57.10;15.60;102229.00;;;;5055873;28;20206;-51
2022/01/17 03:32:16;;;;;;;10.87;9.70;;;14.20;57.00;15.60;102240.00;;;;5049705;28;20175;-48
2022/01/17 03:34:42;;;;;;;11.10;9.80;;;14.20;57.10;15.50;102235.00;;;;5049444;28;20174;-50
2022/01/17 03:37:08;;;;;;;10.30;9.17;;;14.20;57.00;15.50;102233.00;;;;5049445;28;20197;-47
2022/01/17 03:39:34;;;;;;;10.27;9.27;;;14.10;57.10;15.50;102232.00;;;;5049789;28;20651;-50
2022/01/17 03:42:00;;;;;;;10.30;9.20;;;14.10;57.00;15.50;102227.00;;;;5049533;28;20174;-48
2022/01/17 03:44:25;;;;;;;14.33;9.50;;;14.10;57.30;15.50;102221.00;;;;5048164;28;20206;-50
2022/01/17 03:46:51;;;;;;;12.57;9.70;;;14.20;57.30;15.50;102236.00;;;;5049005;28;20202;-48
2022/01/17 03:49:17;;;;;;;10.10;8.97;;;14.20;57.30;15.50;102239.00;;;;5049230;28;20216;-48
2022/01/17 03:51:43;;;;;;;11.77;8.93;;;14.20;57.10;15.40;102238.00;;;;5049239;28;20178;-49
2022/01/17 03:54:08;;;;;;;11.03;9.20;;;14.20;56.90;15.40;102251.00;;;;5048341;28;20174;-49
2022/01/17 03:56:34;;;;;;;10.83;9.73;;;14.20;56.90;15.40;102254.00;;;;5048745;28;20198;-49
2022/01/17 03:59:00;;;;;;;10.93;9.40;;;14.20;56.90;15.40;102252.00;;;;5049170;28;20155;-48
2022/01/17 04:01:25;;;;;;;11.00;9.87;;;14.20;56.80;15.40;102261.00;;;;5048177;28;20186;-48
2022/01/17 04:03:51;;;;;;;11.33;10.00;;;14.20;56.80;15.40;102259.00;;;;5048530;28;20166;-48
2022/01/17 04:06:18;;;;;;;10.83;9.70;;;14.20;56.90;15.40;102249.00;;;;5048677;28;20240;-50
2022/01/17 04:08:43;;;;;;;11.63;9.97;;;14.20;56.60;15.40;102254.00;;;;5033824;28;20222;-48
2022/01/17 04:11:09;;;;;;;11.60;10.20;;;14.20;56.70;15.40;102244.00;;;;5028407;28;20203;-46
2022/01/17 04:13:35;;;;;;;11.47;9.57;;;14.10;56.40;15.40;102251.00;;;;5030035;28;20237;-49
2022/01/17 04:16:01;;;;;;;11.00;9.73;;;14.20;56.50;15.40;102263.00;;;;5033882;28;20187;-48
2022/01/17 04:18:27;;;;;;;11.10;10.00;;;14.10;56.50;15.40;102257.00;;;;5032107;28;20193;-48
2022/01/17 04:20:53;;;;;;;10.83;9.73;;;14.10;56.80;15.40;102253.00;;;;5032690;28;20229;-48
2022/01/17 04:23:19;;;;;;;10.90;9.80;;;14.10;56.50;15.40;102252.00;;;;5029306;28;20182;-48
2022/01/17 04:25:45;;;;;;;10.87;9.77;;;14.10;56.40;15.40;102255.00;;;;5032863;28;20183;-49
2022/01/17 04:28:12;;;;;;;11.23;10.13;;;14.10;56.40;15.30;102260.00;;;;5033487;28;20171;-50
2022/01/17 04:30:38;;;;;;;10.53;9.43;;;14.10;56.60;15.30;102257.00;;;;5029929;28;20199;-46
2022/01/17 04:33:05;;;;;;;11.10;9.87;;;14.00;56.40;15.30;102259.00;;;;5029047;28;20256;-48
2022/01/17 04:35:31;;;;;;;11.43;10.20;;;14.10;56.80;15.30;102256.00;;;;5028952;28;20556;-51
2022/01/17 04:37:59;;;;;;;12.87;10.30;;;14.10;56.80;15.30;102261.00;;;;5028706;28;20182;-49
2022/01/17 04:40:25;;;;;;;11.30;10.10;;;14.10;56.80;15.30;102260.00;;;;5028945;28;20183;-49
2022/01/17 04:42:55;;;;;;;11.97;9.87;;;14.00;57.00;15.30;102252.00;;;;5044175;28;20556;-49
2022/01/17 04:45:21;;;;;;;10.00;9.00;;;14.10;57.00;15.30;102266.00;;;;5029162;28;20179;-48
2022/01/17 04:47:50;;;;;;;11.30;9.40;;;14.00;57.10;15.30;102276.00;;;;5046330;28;20194;-50
2022/01/17 04:50:21;;;;;;;10.50;9.43;;;14.00;57.00;15.30;102273.00;;;;5050849;28;20207;-50
2022/01/17 04:52:48;;;;;;;11.53;9.43;;;14.00;57.10;15.30;102268.00;;;;5043794;28;20222;-49
2022/01/17 04:55:14;;;;;;;11.03;8.87;;;14.00;57.10;15.20;102274.00;;;;5029273;28;20185;-49
2022/01/17 04:57:41;;;;;;;13.60;9.00;;;14.10;57.00;15.20;102275.00;;;;5029284;28;20281;-50
2022/01/17 05:00:08;;;;;;;11.77;8.93;;;14.00;57.30;15.20;102285.00;;;;5029956;28;20422;-46
2022/01/17 05:02:35;;;;;;;15.20;8.97;;;14.00;56.90;15.20;102289.00;;;;5029887;28;20203;-49
2022/01/17 05:05:03;;;;;;;10.80;9.10;;;14.00;57.10;15.20;102294.00;;;;5027276;28;20203;-49
2022/01/17 05:07:29;;;;;;;11.47;8.50;;;14.00;56.90;15.20;102282.00;;;;5028104;28;20253;-49
2022/01/17 05:09:54;;;;;;;10.10;9.00;;;14.00;57.00;15.20;102287.00;;;;5027507;28;20207;-48
2022/01/17 05:12:20;;;;;;;10.93;8.70;;;14.00;57.20;15.20;102281.00;;;;5028092;28;20205;-49
2022/01/17 05:14:49;;;;;;;9.20;7.87;;;14.00;56.90;15.20;102281.00;;;;5026410;28;20174;-47
2022/01/17 05:19:58;;;;;;;14.97;8.77;;;14.00;56.90;15.20;102279.00;;;;5020277;28;20218;-49
2022/01/17 05:22:26;;;;;;;11.23;8.67;;;14.00;57.00;15.20;102268.00;;;;5027741;28;20685;-49
2022/01/17 05:24:52;;;;;;;11.33;8.67;;;14.00;57.00;15.20;102282.00;;;;5028299;28;20375;-50
2022/01/17 05:27:17;;;;;;;9.73;8.33;;;14.20;57.00;15.20;102284.00;;;;5046966;28;20201;-48
2022/01/17 05:29:43;;;;;;;11.27;8.03;;;14.40;56.70;15.30;102289.00;;;;5046959;28;20198;-47
2022/01/17 05:32:09;;;;;;;10.93;7.87;;;14.70;56.50;15.40;102299.00;;;;5045892;28;20232;-48
2022/01/17 05:34:37;;;;;;;12.10;7.60;;;15.00;56.00;15.60;102313.00;;;;5047018;28;20202;-49
2022/01/17 05:37:03;;;;;;;11.40;7.60;;;15.40;55.60;15.80;102299.00;;;;5045767;28;20217;-47
2022/01/17 05:39:29;;;;;;;9.73;7.00;;;15.70;55.00;16.00;102285.00;;;;5047143;28;20174;-48
2022/01/17 05:41:55;;;;;;;9.43;7.20;;;16.00;54.50;16.20;102288.00;;;;5046762;28;20360;-49
2022/01/17 05:44:20;;;;;;;8.83;6.77;;;16.30;54.30;16.30;102294.00;;;;5047266;28;20174;-50
2022/01/17 05:46:46;;;;;;;7.90;6.77;;;16.40;54.20;16.50;102295.00;;;;5046389;28;20221;-49
2022/01/17 05:49:12;;;;;;;7.73;6.93;;;16.50;54.00;16.60;102308.00;;;;5047032;28;20882;-46
2022/01/17 05:51:38;;;;;;;7.67;6.90;;;16.70;54.00;16.70;102317.00;;;;5028142;28;20175;-50
2022/01/17 05:54:03;;;;;;;11.20;6.60;;;16.70;54.00;16.80;102313.00;;;;5027125;28;20190;-48
2022/01/17 05:56:29;;;;;;;7.53;6.53;;;16.90;54.10;17.00;102302.00;;;;5026966;28;20194;-51
2022/01/17 05:58:55;;;;;;;9.43;6.47;;;16.90;54.00;17.10;102275.00;;;;5026908;28;20497;-49
2022/01/17 06:01:21;;;;;;;8.57;6.33;;;17.00;54.00;17.10;102275.00;;;;5026862;28;20229;-48
2022/01/17 06:03:46;;;;;;;7.73;6.03;;;17.10;53.90;17.30;102275.00;;;;5025323;28;20175;-49
2022/01/17 06:06:12;;;;;;;7.53;5.83;;;17.20;53.90;17.40;102284.00;;;;5026949;28;20195;-49
2022/01/17 06:08:38;;;;;;;6.53;5.93;;;17.20;53.90;17.40;102293.00;;;;5027805;28;20658;-48
2022/01/17 06:11:04;;;;;;;7.07;5.77;;;17.30;53.90;17.50;102290.00;;;;5028999;28;20210;-49
2022/01/17 06:13:29;;;;;;;6.50;5.87;;;17.40;53.90;17.60;102293.00;;;;5046038;28;20246;-49
2022/01/17 06:15:56;;;;;;;8.10;5.97;;;17.40;53.80;17.60;102283.00;;;;5047919;28;20252;-50
2022/01/17 06:18:21;;;;;;;6.53;5.83;;;17.50;53.90;17.70;102285.00;;;;5047358;28;20178;-50
2022/01/17 06:20:47;;;;;;;6.30;5.70;;;17.50;53.90;17.80;102301.00;;;;5047619;28;20167;-47
2022/01/17 06:23:13;;;;;;;7.27;5.80;;;17.50;53.90;17.80;102294.00;;;;5046602;28;20181;-48
2022/01/17 06:25:38;;;;;;;6.67;5.70;;;17.60;54.00;17.90;102295.00;;;;5046364;28;20562;-49
2022/01/17 06:28:04;;;;;;;6.67;5.97;;;17.60;54.10;17.90;102296.00;;;;5050096;28;20224;-50
2022/01/17 06:30:30;;;;;;;6.43;5.53;;;17.60;54.10;17.90;102314.00;;;;5050208;28;20198;-49
2022/01/17 06:32:55;;;;;;;5.73;5.20;;;17.60;54.10;18.00;102311.00;;;;5050359;28;20167;-51
2022/01/17 06:35:21;;;;;;;5.90;5.37;;;17.60;54.20;18.00;102293.00;;;;5050686;28;20174;-48
2022/01/17 06:37:48;;;;;;;6.43;5.83;;;17.50;54.20;18.00;102292.00;;;;5050550;28;20209;-48
2022/01/17 06:40:14;;;;;;;6.10;5.50;;;17.50;54.40;18.00;102290.00;;;;5050483;28;20852;-48
2022/01/17 06:42:40;;;;;;;6.10;5.50;;;17.40;54.60;18.00;102291.00;;;;5072813;28;20162;-51
2022/01/17 06:45:06;;;;;;;6.23;5.63;;;17.40;54.60;18.00;102286.00;;;;5060303;28;20171;-50
2022/01/17 06:47:33;;;;;;;6.03;5.43;;;17.40;54.70;18.00;102281.00;;;;5053211;28;20206;-51
2022/01/17 06:49:58;;;;;;;5.80;5.30;;;17.30;54.70;18.00;102277.00;;;;5052147;28;20678;-50
2022/01/17 06:52:24;;;;;;;5.60;5.10;;;17.30;54.90;18.00;102281.00;;;;5052380;28;20170;-50
2022/01/17 06:54:52;;;;;;;5.97;5.37;;;17.30;55.00;17.90;102274.00;;;;5051404;28;20205;-50
2022/01/17 06:57:18;;;;;;;5.77;5.17;;;17.20;55.10;17.90;102278.00;;;;5050179;28;20210;-50
2022/01/17 06:59:44;;;;;;;5.60;5.10;;;17.10;55.10;17.90;102282.00;;;;5050117;28;20186;-49
2022/01/17 07:02:10;;;;;;;6.00;5.40;;;17.10;55.20;17.90;102297.00;;;;5050447;28;20805;-49
2022/01/17 07:04:35;;;;;;;6.03;5.43;;;17.10;55.30;17.90;102314.00;;;;5050022;28;20653;-49
2022/01/17 07:07:02;;;;;;;6.10;5.50;;;17.00;55.30;17.80;102327.00;;;;5049721;28;20256;-50
2022/01/17 07:09:29;;;;;;;5.70;5.20;;;17.00;55.40;17.80;102318.00;;;;5049588;28;20194;-49
2022/01/17 07:11:58;;;;;;;5.43;4.93;;;17.00;55.50;17.80;102332.00;;;;5048468;28;20174;-49
2022/01/17 07:14:25;;;;;;;5.43;4.93;;;16.90;55.50;17.80;102351.00;;;;5049817;28;20253;-49
2022/01/17 07:16:51;;;;;;;5.70;5.20;;;16.90;55.60;17.80;102344.00;;;;5049358;28;20747;-50
2022/01/17 07:19:16;;;;;;;6.20;5.50;;;16.90;55.50;17.80;102321.00;;;;5049150;28;20166;-49
2022/01/17 07:21:42;;;;;;;5.87;5.30;;;17.10;55.30;17.80;102299.00;;;;5049134;28;20894;-48
2022/01/17 07:24:08;;;;;;;5.53;5.03;;;17.40;55.00;17.90;102300.00;;;;5052008;28;20182;-48
2022/01/17 07:26:33;;;;;;;6.27;5.30;;;17.60;54.50;18.00;102292.00;;;;5067571;28;20194;-49
2022/01/17 07:29:00;;;;;;;5.47;4.97;;;17.90;54.20;18.10;102283.00;;;;5055851;28;20171;-51
2022/01/17 07:31:26;;;;;;;5.50;4.97;;;18.00;54.00;18.20;102268.00;;;;5049431;28;20281;-48
2022/01/17 07:33:51;;;;;;;4.80;4.40;;;18.10;54.00;18.30;102268.00;;;;5049021;28;20949;-49
2022/01/17 07:36:19;;;;;;;6.00;5.50;;;18.10;53.80;18.40;102284.00;;;;5050216;28;20601;-50
2022/01/17 07:38:46;;;;;;;5.33;4.77;;;18.10;53.90;18.40;102298.00;;;;5047623;28;20183;-49
2022/01/17 07:41:11;;;;;;;5.70;5.20;;;18.10;53.90;18.50;102299.00;;;;5049147;28;20191;-49
2022/01/17 07:43:38;;;;;;;5.27;4.77;;;18.10;53.90;18.50;102297.00;;;;5047909;28;20554;-49
2022/01/17 07:46:17;;;;;;;5.60;5.10;;;18.10;54.00;18.50;102287.00;;;;5048813;28;20218;-49
2022/01/17 07:51:28;;;;;;;5.43;4.80;;;18.00;54.30;18.50;102296.00;;;;5047483;28;20324;-50
2022/01/17 07:53:54;;;;;;;5.17;4.70;;;18.00;54.30;18.50;102308.00;;;;5048596;28;20685;-49
2022/01/17 07:56:20;;;;;;;5.30;4.80;;;17.90;54.30;18.50;102303.00;;;;5048706;28;20190;-51
2022/01/17 07:58:45;;;;;;;5.33;4.90;;;17.90;54.50;18.50;102308.00;;;;5047569;28;20183;-51
2022/01/17 08:01:11;;;;;;;5.63;5.13;;;17.90;54.60;18.50;102318.00;;;;5048937;28;20188;-49
2022/01/17 08:03:37;;;;;;;5.33;4.83;;;17.80;54.70;18.50;102318.00;;;;5048797;28;20667;-49
2022/01/17 08:06:03;;;;;;;4.90;4.50;;;17.80;54.90;18.50;102322.00;;;;5048413;28;20225;-50
2022/01/17 08:08:29;;;;;;;4.93;4.53;;;17.70;54.80;18.50;102328.00;;;;5047685;28;20209;-51
2022/01/17 08:10:54;;;;;;;5.37;4.87;;;17.70;54.90;18.40;102342.00;;;;5048297;28;20210;-50
2022/01/17 08:13:20;;;;;;;5.57;5.07;;;17.60;55.00;18.40;102348.00;;;;5048367;28;20539;-48
2022/01/17 08:15:46;;;;;;;5.27;4.77;;;17.60;55.10;18.40;102343.00;;;;5048453;28;20163;-49
2022/01/17 08:18:13;;;;;;;5.60;5.10;;;17.60;55.20;18.40;102348.00;;;;5048022;28;20227;-50
2022/01/17 08:20:38;;;;;;;5.37;4.97;;;17.50;55.20;18.40;102353.00;;;;5047020;28;20175;-51
2022/01/17 08:23:04;;;;;;;5.10;4.70;;;17.50;55.40;18.30;102349.00;;;;5032582;28;20191;-50
2022/01/17 08:25:30;;;;;;;5.07;4.60;;;17.40;55.40;18.30;102354.00;;;;5028046;28;20171;-48
2022/01/17 08:27:56;;;;;;;5.47;4.97;;;17.40;55.50;18.30;102355.00;;;;5032158;28;20206;-47
2022/01/17 08:30:23;;;;;;;5.23;4.73;;;17.40;55.70;18.30;102366.00;;;;5046670;28;20195;-49
2022/01/17 08:32:50;;;;;;;6.30;5.10;;;17.30;55.70;18.20;102361.00;;;;5048220;28;20212;-52
2022/01/17 08:35:16;;;;;;;5.30;4.70;;;17.30;56.00;18.20;102355.00;;;;5052156;28;20171;-51
2022/01/17 08:37:41;;;;;;;4.83;4.43;;;17.30;56.10;18.20;102365.00;;;;5055062;28;20194;-50
2022/01/17 08:40:08;;;;;;;5.67;4.53;;;17.20;56.10;18.20;102351.00;;;;5051708;28;20177;-50
2022/01/17 08:42:36;;;;;;;5.17;4.60;;;17.10;56.10;18.10;102356.00;;;;5053857;28;20212;-51
2022/01/17 08:45:03;;;;;;;8.43;5.03;;;17.10;56.20;18.10;102359.00;;;;5053069;28;20415;-50
2022/01/17 08:47:29;;;;;;;7.77;5.07;;;17.10;56.30;18.10;102361.00;;;;5052519;28;20210;-50
2022/01/17 08:49:55;;;;;;;5.30;4.80;;;17.00;56.20;18.10;102355.00;;;;5048295;28;20205;-50
2022/01/17 08:52:20;;;;;;;6.27;5.07;;;17.10;56.30;18.00;102352.00;;;;5009686;28;20187;-50
2022/01/17 08:54:46;;;;;;;5.20;4.70;;;16.90;56.30;18.00;102369.00;;;;5011124;28;20791;-51
2022/01/17 08:57:12;;;;;;;4.97;4.57;;;16.90;56.30;18.00;102382.00;;;;5010205;28;20605;-48
2022/01/17 08:59:38;;;;;;;5.30;4.80;;;16.90;56.30;17.90;102375.00;;;;5009545;28;20356;-48
2022/01/17 09:02:04;;;;;;;5.30;4.80;;;16.90;56.30;17.90;102382.00;;;;5009507;28;20176;-48
2022/01/17 09:04:29;;;;;;;4.90;4.50;;;16.80;56.20;17.90;102382.00;;;;5008939;28;20175;-50
2022/01/17 09:06:55;;;;;;;5.30;4.73;;;16.80;56.20;17.80;102385.00;;;;5044909;28;20214;-51
2022/01/17 09:09:21;;;;;;;6.00;5.07;;;16.80;56.20;17.80;102387.00;;;;5048680;28;20166;-48
2022/01/17 09:11:47;;;;;;;5.63;5.10;;;16.80;56.20;17.80;102377.00;;;;5032215;28;20171;-48
2022/01/17 09:14:12;;;;;;;5.80;5.17;;;17.00;56.40;17.90;102387.00;;;;5028120;28;20175;-47
2022/01/17 09:16:38;;;;;;;6.57;4.83;;;17.30;56.00;18.00;102371.00;;;;5027283;28;20198;-48
2022/01/17 09:19:05;;;;;;;5.80;4.77;;;17.60;55.40;18.20;102370.00;;;;5027302;28;20179;-49
2022/01/17 09:21:31;;;;;;;5.37;4.87;;;18.00;54.90;18.30;102372.00;;;;5027272;28;20194;-48
2022/01/17 09:23:58;;;;;;;8.17;4.87;;;18.20;54.40;18.50;102368.00;;;;5025793;28;20175;-47
2022/01/17 09:26:27;;;;;;;21.80;5.60;;;18.40;54.10;18.60;102387.00;;;;5025814;28;20195;-48
2022/01/17 09:28:53;;;;;;;12.00;5.33;;;18.50;54.30;18.70;102362.00;;;;5027925;28;20308;-49
2022/01/17 09:31:19;;;;;;;6.73;5.00;;;18.50;54.10;18.70;102381.00;;;;5027659;28;20209;-48
2022/01/17 09:33:45;;;;;;;11.97;4.90;;;18.50;54.00;18.80;102381.00;;;;5027113;28;20170;-50
2022/01/17 09:36:10;;;;;;;7.67;5.10;;;18.50;54.30;18.80;102371.00;;;;5027369;28;20691;-49
2022/01/17 09:38:36;;;;;;;6.13;4.77;;;18.50;54.20;18.90;102391.00;;;;5027753;28;20170;-50
2022/01/17 09:41:02;;;;;;;6.87;4.90;;;18.50;54.30;18.90;102425.00;;;;5026981;28;20185;-50
2022/01/17 09:43:28;;;;;;;6.57;4.63;;;18.50;54.40;18.90;102418.00;;;;5026956;28;20252;-49
2022/01/17 09:45:54;;;;;;;6.10;5.03;;;18.40;54.30;18.90;102427.00;;;;5025850;28;20307;-48
2022/01/17 09:48:22;;;;;;;5.60;4.70;;;18.40;54.50;18.90;102427.00;;;;5027660;28;20175;-49
2022/01/17 09:51:02;;;;;;;5.20;4.80;;;18.40;54.50;18.90;102433.00;;;;5037663;28;20594;-48
2022/01/17 09:53:28;;;;;;;7.43;5.23;;;18.30;54.60;18.90;102431.00;;;;5064083;28;20240;-49
2022/01/17 09:55:58;;;;;;;5.47;4.77;;;18.30;54.60;18.90;102445.00;;;;5062872;28;20200;-51
2022/01/17 09:58:24;;;;;;;4.97;4.57;;;18.30;54.70;18.90;102448.00;;;;5048949;28;20276;-48
2022/01/17 10:00:49;;;;;;;7.43;5.00;;;18.20;55.30;18.90;102422.00;;;;5047289;28;20202;-48
2022/01/17 10:03:18;;;;;;;5.60;4.70;;;18.20;54.80;18.90;102433.00;;;;5051735;28;20188;-48
2022/01/17 10:05:44;;;;;;;5.20;4.80;;;18.10;54.80;18.90;102436.00;;;;5051290;28;20268;-49
2022/01/17 10:08:16;;;;;;;7.00;4.80;;;18.10;54.90;18.90;102408.00;;;;5050178;28;20218;-49
2022/01/17 10:10:52;;;;;;;5.47;4.70;;;18.10;55.10;18.80;102438.00;;;;5049556;28;20191;-49
2022/01/17 10:13:31;;;;;;;5.27;4.60;;;18.00;55.10;18.80;102433.00;;;;5050091;28;20209;-48
2022/01/17 10:16:13;;;;;;;5.07;4.57;;;17.90;55.00;18.80;102418.00;;;;5051080;28;20657;-48
2022/01/17 10:18:49;;;;;;;5.60;4.93;;;17.90;55.10;18.70;102421.00;;;;5051350;28;20178;-49
2022/01/17 10:27:04;;;;;;;5.20;4.73;;;17.80;55.50;18.60;102451.00;;;;5050825;28;20196;-49
2022/01/17 10:35:33;;;;;;;6.50;4.80;;;17.70;55.50;18.30;102460.00;;;;5053979;28;20263;-50
2022/01/17 10:38:22;;;;;;;5.20;4.70;;;17.60;55.50;18.50;102438.00;;;;5070893;28;20155;-50
2022/01/17 10:40:56;;;;;;;5.60;5.00;;;17.50;55.50;18.50;102450.00;;;;5060521;28;20159;-47
2022/01/17 10:43:34;;;;;;;5.20;4.80;;;17.50;55.60;18.30;102451.00;;;;5051783;28;20162;-49
2022/01/17 10:46:00;;;;;;;5.03;4.63;;;17.40;55.50;18.40;102436.00;;;;5050578;28;20228;-50
2022/01/17 10:48:34;;;;;;;5.30;4.80;;;17.40;55.60;18.40;102421.00;;;;5050091;28;20638;-49
2022/01/17 10:51:00;;;;;;;4.93;4.53;;;17.40;55.60;18.40;102427.00;;;;5049046;28;20827;-47
2022/01/17 10:53:26;;;;;;;5.20;4.70;;;17.40;55.70;18.30;102425.00;;;;5049641;28;20221;-50
2022/01/17 10:55:54;;;;;;;6.70;5.10;;;17.30;55.70;18.30;102423.00;;;;5049843;28;20396;-45
2022/01/17 10:58:25;;;;;;;5.33;4.83;;;17.30;55.80;18.30;102436.00;;;;5049268;28;20182;-49
2022/01/17 11:00:57;;;;;;;15.67;5.27;;;17.30;56.10;18.30;102435.00;;;;5049842;28;20208;-48
2022/01/17 11:03:29;;;;;;;9.23;4.73;;;17.30;56.60;18.30;102440.00;;;;5049240;28;20208;-48
2022/01/17 11:05:57;;;;;;;14.07;5.17;;;17.20;56.40;18.20;102441.00;;;;5049614;28;20199;-47
2022/01/17 11:08:26;;;;;;;9.20;4.70;;;17.30;56.50;18.20;102440.00;;;;5048892;28;20186;-49
2022/01/17 11:10:54;;;;;;;9.93;5.67;;;17.20;56.50;18.20;102446.00;;;;5048510;28;20245;-50
2022/01/17 11:13:23;;;;;;;9.50;5.47;;;17.20;56.60;18.20;102444.00;;;;5049562;28;20177;-49
2022/01/17 11:16:04;;;;;;;6.00;4.90;;;17.10;56.50;18.20;102455.00;;;;5029664;28;20183;-50